sensor_id;sensor_type;location;lat;lon;timestamp;P1;durP1;ratioP1;P2;durP2;ratioP2
77466;SDS011;66564;42.482;25.548;2023-04-20T00:01:39;2.72;;;1.98;;
77466;SDS011;66564;42.482;25.548;2023-04-20T00:04:05;2.70;;;1.92;;
77466;SDS011;66564;42.482;25.548;2023-04-20T00:06:30;2.83;;;2.28;;
77466;SDS011;66564;42.482;25.548;2023-04-20T00:08:57;3.03;;;2.28;;
77466;SDS011;66564;42.482;25.548;2023-04-20T00:11:22;5.03;;;2.55;;
77466;SDS011;66564;42.482;25.548;2023-04-20T00:13:48;3.33;;;2.30;;
77466;SDS011;66564;42.482;25.548;2023-04-20T00:16:13;3.25;;;2.17;;
77466;SDS011;66564;42.482;25.548;2023-04-20T00:18:39;5.20;;;2.45;;
77466;SDS011;66564;42.482;25.548;2023-04-20T00:21:05;3.45;;;2.38;;
77466;SDS011;66564;42.482;25.548;2023-04-20T00:23:33;5.55;;;2.40;;
77466;SDS011;66564;42.482;25.548;2023-04-20T00:25:59;3.85;;;2.40;;
77466;SDS011;66564;42.482;25.548;2023-04-20T00:28:25;3.72;;;2.38;;
77466;SDS011;66564;42.482;25.548;2023-04-20T00:30:50;4.78;;;2.10;;
77466;SDS011;66564;42.482;25.548;2023-04-20T00:33:16;3.97;;;2.53;;
77466;SDS011;66564;42.482;25.548;2023-04-20T00:35:41;3.90;;;2.63;;
77466;SDS011;66564;42.482;25.548;2023-04-20T00:38:06;6.03;;;2.30;;
77466;SDS011;66564;42.482;25.548;2023-04-20T00:40:32;4.55;;;2.58;;
77466;SDS011;66564;42.482;25.548;2023-04-20T00:43:08;3.30;;;2.40;;
77466;SDS011;66564;42.482;25.548;2023-04-20T00:45:36;3.50;;;2.50;;
77466;SDS011;66564;42.482;25.548;2023-04-20T00:48:02;3.08;;;2.03;;
77466;SDS011;66564;42.482;25.548;2023-04-20T00:50:29;3.80;;;2.53;;
77466;SDS011;66564;42.482;25.548;2023-04-20T00:52:54;4.88;;;2.92;;
77466;SDS011;66564;42.482;25.548;2023-04-20T00:55:20;7.45;;;3.15;;
77466;SDS011;66564;42.482;25.548;2023-04-20T00:57:47;4.82;;;3.33;;
77466;SDS011;66564;42.482;25.548;2023-04-20T01:00:13;4.90;;;3.70;;
77466;SDS011;66564;42.482;25.548;2023-04-20T01:02:39;6.28;;;3.92;;
77466;SDS011;66564;42.482;25.548;2023-04-20T01:05:04;5.90;;;4.45;;
77466;SDS011;66564;42.482;25.548;2023-04-20T01:07:30;6.25;;;4.70;;
77466;SDS011;66564;42.482;25.548;2023-04-20T01:09:56;10.02;;;4.57;;
77466;SDS011;66564;42.482;25.548;2023-04-20T01:12:22;9.27;;;5.10;;
77466;SDS011;66564;42.482;25.548;2023-04-20T01:14:47;7.35;;;5.45;;
77466;SDS011;66564;42.482;25.548;2023-04-20T01:17:13;8.43;;;5.32;;
77466;SDS011;66564;42.482;25.548;2023-04-20T01:19:39;8.25;;;5.60;;
77466;SDS011;66564;42.482;25.548;2023-04-20T01:22:06;7.43;;;5.63;;
77466;SDS011;66564;42.482;25.548;2023-04-20T01:24:32;7.22;;;5.70;;
77466;SDS011;66564;42.482;25.548;2023-04-20T01:26:58;7.78;;;5.95;;
77466;SDS011;66564;42.482;25.548;2023-04-20T01:29:23;10.85;;;5.50;;
77466;SDS011;66564;42.482;25.548;2023-04-20T01:31:49;8.88;;;6.13;;
77466;SDS011;66564;42.482;25.548;2023-04-20T01:34:15;8.48;;;5.38;;
77466;SDS011;66564;42.482;25.548;2023-04-20T01:36:41;7.20;;;5.75;;
77466;SDS011;66564;42.482;25.548;2023-04-20T01:39:08;7.22;;;5.50;;
77466;SDS011;66564;42.482;25.548;2023-04-20T01:41:33;7.45;;;5.78;;
77466;SDS011;66564;42.482;25.548;2023-04-20T01:43:59;9.25;;;5.20;;
77466;SDS011;66564;42.482;25.548;2023-04-20T01:46:24;7.57;;;6.28;;
77466;SDS011;66564;42.482;25.548;2023-04-20T01:48:50;6.60;;;5.15;;
77466;SDS011;66564;42.482;25.548;2023-04-20T01:51:15;7.38;;;5.53;;
77466;SDS011;66564;42.482;25.548;2023-04-20T01:53:41;8.93;;;5.38;;
77466;SDS011;66564;42.482;25.548;2023-04-20T01:56:06;6.47;;;5.00;;
77466;SDS011;66564;42.482;25.548;2023-04-20T01:58:32;8.23;;;5.57;;
77466;SDS011;66564;42.482;25.548;2023-04-20T02:00:59;10.85;;;5.50;;
77466;SDS011;66564;42.482;25.548;2023-04-20T02:03:26;7.80;;;5.20;;
77466;SDS011;66564;42.482;25.548;2023-04-20T02:05:51;8.02;;;5.57;;
77466;SDS011;66564;42.482;25.548;2023-04-20T02:08:17;7.40;;;5.38;;
77466;SDS011;66564;42.482;25.548;2023-04-20T02:10:42;7.13;;;5.75;;
77466;SDS011;66564;42.482;25.548;2023-04-20T02:13:08;10.00;;;6.65;;
77466;SDS011;66564;42.482;25.548;2023-04-20T02:15:33;7.95;;;6.13;;
77466;SDS011;66564;42.482;25.548;2023-04-20T02:17:59;10.38;;;5.70;;
77466;SDS011;66564;42.482;25.548;2023-04-20T02:20:25;8.30;;;5.80;;
77466;SDS011;66564;42.482;25.548;2023-04-20T02:22:51;9.07;;;5.35;;
77466;SDS011;66564;42.482;25.548;2023-04-20T02:25:16;9.15;;;6.15;;
77466;SDS011;66564;42.482;25.548;2023-04-20T02:27:42;8.75;;;5.60;;
77466;SDS011;66564;42.482;25.548;2023-04-20T02:30:07;8.10;;;5.60;;
77466;SDS011;66564;42.482;25.548;2023-04-20T02:32:34;10.80;;;6.18;;
77466;SDS011;66564;42.482;25.548;2023-04-20T02:35:00;10.38;;;5.57;;
77466;SDS011;66564;42.482;25.548;2023-04-20T02:37:27;7.93;;;5.90;;
77466;SDS011;66564;42.482;25.548;2023-04-20T02:39:53;8.05;;;5.65;;
77466;SDS011;66564;42.482;25.548;2023-04-20T02:42:19;8.80;;;5.90;;
77466;SDS011;66564;42.482;25.548;2023-04-20T02:44:44;8.10;;;5.60;;
77466;SDS011;66564;42.482;25.548;2023-04-20T02:47:10;8.25;;;5.90;;
77466;SDS011;66564;42.482;25.548;2023-04-20T02:49:35;7.43;;;5.97;;
77466;SDS011;66564;42.482;25.548;2023-04-20T02:52:01;7.60;;;5.72;;
77466;SDS011;66564;42.482;25.548;2023-04-20T02:54:26;6.30;;;5.50;;
77466;SDS011;66564;42.482;25.548;2023-04-20T02:56:51;12.25;;;6.40;;
77466;SDS011;66564;42.482;25.548;2023-04-20T02:59:17;7.78;;;5.45;;
77466;SDS011;66564;42.482;25.548;2023-04-20T03:01:43;7.60;;;5.88;;
77466;SDS011;66564;42.482;25.548;2023-04-20T03:04:08;7.63;;;6.00;;
77466;SDS011;66564;42.482;25.548;2023-04-20T03:06:34;9.02;;;6.38;;
77466;SDS011;66564;42.482;25.548;2023-04-20T03:09:00;7.45;;;6.10;;
77466;SDS011;66564;42.482;25.548;2023-04-20T03:11:26;11.20;;;6.50;;
77466;SDS011;66564;42.482;25.548;2023-04-20T03:13:52;7.72;;;6.03;;
77466;SDS011;66564;42.482;25.548;2023-04-20T03:16:17;7.93;;;6.03;;
77466;SDS011;66564;42.482;25.548;2023-04-20T03:18:43;8.90;;;6.35;;
77466;SDS011;66564;42.482;25.548;2023-04-20T03:21:09;7.95;;;6.25;;
77466;SDS011;66564;42.482;25.548;2023-04-20T03:23:34;10.00;;;6.45;;
77466;SDS011;66564;42.482;25.548;2023-04-20T03:26:00;9.52;;;5.80;;
77466;SDS011;66564;42.482;25.548;2023-04-20T03:28:26;10.00;;;7.28;;
77466;SDS011;66564;42.482;25.548;2023-04-20T03:30:51;9.23;;;6.65;;
77466;SDS011;66564;42.482;25.548;2023-04-20T03:33:16;8.60;;;6.60;;
77466;SDS011;66564;42.482;25.548;2023-04-20T03:35:42;10.35;;;6.70;;
77466;SDS011;66564;42.482;25.548;2023-04-20T03:38:07;9.02;;;6.90;;
77466;SDS011;66564;42.482;25.548;2023-04-20T03:40:33;8.60;;;6.75;;
77466;SDS011;66564;42.482;25.548;2023-04-20T03:42:58;10.32;;;6.95;;
77466;SDS011;66564;42.482;25.548;2023-04-20T03:45:24;8.75;;;6.28;;
77466;SDS011;66564;42.482;25.548;2023-04-20T03:47:49;11.07;;;7.10;;
77466;SDS011;66564;42.482;25.548;2023-04-20T03:50:15;10.57;;;6.13;;
77466;SDS011;66564;42.482;25.548;2023-04-20T03:52:41;10.00;;;7.07;;
77466;SDS011;66564;42.482;25.548;2023-04-20T03:55:06;8.38;;;6.22;;
77466;SDS011;66564;42.482;25.548;2023-04-20T03:57:32;9.25;;;6.53;;
77466;SDS011;66564;42.482;25.548;2023-04-20T03:59:58;10.75;;;6.88;;
77466;SDS011;66564;42.482;25.548;2023-04-20T04:02:23;10.52;;;6.80;;
77466;SDS011;66564;42.482;25.548;2023-04-20T04:04:49;8.88;;;6.30;;
77466;SDS011;66564;42.482;25.548;2023-04-20T04:07:17;11.05;;;6.63;;
77466;SDS011;66564;42.482;25.548;2023-04-20T04:09:42;10.30;;;6.93;;
77466;SDS011;66564;42.482;25.548;2023-04-20T04:12:08;8.70;;;6.38;;
77466;SDS011;66564;42.482;25.548;2023-04-20T04:14:33;9.57;;;6.07;;
77466;SDS011;66564;42.482;25.548;2023-04-20T04:16:59;8.90;;;6.90;;
77466;SDS011;66564;42.482;25.548;2023-04-20T04:19:25;8.35;;;6.50;;
77466;SDS011;66564;42.482;25.548;2023-04-20T04:21:50;10.25;;;6.82;;
77466;SDS011;66564;42.482;25.548;2023-04-20T04:24:18;9.55;;;7.15;;
77466;SDS011;66564;42.482;25.548;2023-04-20T04:26:45;11.50;;;6.93;;
77466;SDS011;66564;42.482;25.548;2023-04-20T04:29:11;11.75;;;6.93;;
77466;SDS011;66564;42.482;25.548;2023-04-20T04:31:36;10.93;;;6.35;;
77466;SDS011;66564;42.482;25.548;2023-04-20T04:34:02;9.68;;;7.25;;
77466;SDS011;66564;42.482;25.548;2023-04-20T04:36:27;8.90;;;6.88;;
77466;SDS011;66564;42.482;25.548;2023-04-20T04:38:53;15.80;;;6.95;;
77466;SDS011;66564;42.482;25.548;2023-04-20T04:41:18;10.80;;;6.47;;
77466;SDS011;66564;42.482;25.548;2023-04-20T04:43:44;9.88;;;6.90;;
77466;SDS011;66564;42.482;25.548;2023-04-20T04:46:11;9.38;;;6.50;;
77466;SDS011;66564;42.482;25.548;2023-04-20T04:48:38;10.93;;;7.28;;
77466;SDS011;66564;42.482;25.548;2023-04-20T04:51:07;10.65;;;7.05;;
77466;SDS011;66564;42.482;25.548;2023-04-20T04:53:33;9.80;;;7.13;;
77466;SDS011;66564;42.482;25.548;2023-04-20T04:55:59;35.10;;;22.02;;
77466;SDS011;66564;42.482;25.548;2023-04-20T04:58:25;25.25;;;16.42;;
77466;SDS011;66564;42.482;25.548;2023-04-20T05:00:50;12.45;;;8.93;;
77466;SDS011;66564;42.482;25.548;2023-04-20T05:03:16;12.32;;;7.43;;
77466;SDS011;66564;42.482;25.548;2023-04-20T05:05:42;12.55;;;7.53;;
77466;SDS011;66564;42.482;25.548;2023-04-20T05:08:07;11.85;;;7.43;;
77466;SDS011;66564;42.482;25.548;2023-04-20T05:10:33;9.55;;;7.35;;
77466;SDS011;66564;42.482;25.548;2023-04-20T05:12:58;12.20;;;8.43;;
77466;SDS011;66564;42.482;25.548;2023-04-20T05:15:24;10.90;;;8.15;;
77466;SDS011;66564;42.482;25.548;2023-04-20T05:17:50;12.38;;;7.03;;
77466;SDS011;66564;42.482;25.548;2023-04-20T05:20:16;10.45;;;7.40;;
77466;SDS011;66564;42.482;25.548;2023-04-20T05:22:42;12.13;;;7.68;;
77466;SDS011;66564;42.482;25.548;2023-04-20T05:25:07;10.23;;;6.45;;
77466;SDS011;66564;42.482;25.548;2023-04-20T05:27:34;10.98;;;7.03;;
77466;SDS011;66564;42.482;25.548;2023-04-20T05:29:59;10.93;;;6.18;;
77466;SDS011;66564;42.482;25.548;2023-04-20T05:32:25;9.45;;;6.53;;
77466;SDS011;66564;42.482;25.548;2023-04-20T05:34:50;11.32;;;6.70;;
77466;SDS011;66564;42.482;25.548;2023-04-20T05:37:16;8.43;;;6.53;;
77466;SDS011;66564;42.482;25.548;2023-04-20T05:39:41;11.13;;;6.90;;
77466;SDS011;66564;42.482;25.548;2023-04-20T05:42:07;12.52;;;6.63;;
77466;SDS011;66564;42.482;25.548;2023-04-20T05:44:32;10.82;;;6.95;;
77466;SDS011;66564;42.482;25.548;2023-04-20T05:47:00;9.88;;;7.25;;
77466;SDS011;66564;42.482;25.548;2023-04-20T05:49:30;10.23;;;6.60;;
77466;SDS011;66564;42.482;25.548;2023-04-20T05:51:56;11.30;;;6.32;;
77466;SDS011;66564;42.482;25.548;2023-04-20T05:54:22;7.80;;;6.32;;
77466;SDS011;66564;42.482;25.548;2023-04-20T05:56:47;8.77;;;6.32;;
77466;SDS011;66564;42.482;25.548;2023-04-20T05:59:13;11.02;;;6.95;;
77466;SDS011;66564;42.482;25.548;2023-04-20T06:01:39;9.02;;;5.85;;
77466;SDS011;66564;42.482;25.548;2023-04-20T06:04:05;8.82;;;6.28;;
77466;SDS011;66564;42.482;25.548;2023-04-20T06:06:30;8.68;;;6.45;;
77466;SDS011;66564;42.482;25.548;2023-04-20T06:08:56;9.18;;;6.30;;
77466;SDS011;66564;42.482;25.548;2023-04-20T06:11:22;9.13;;;6.72;;
77466;SDS011;66564;42.482;25.548;2023-04-20T06:13:47;9.20;;;6.25;;
77466;SDS011;66564;42.482;25.548;2023-04-20T06:16:13;8.13;;;6.05;;
77466;SDS011;66564;42.482;25.548;2023-04-20T06:18:38;8.55;;;6.63;;
77466;SDS011;66564;42.482;25.548;2023-04-20T06:21:04;10.35;;;6.10;;
77466;SDS011;66564;42.482;25.548;2023-04-20T06:23:33;8.45;;;6.22;;
77466;SDS011;66564;42.482;25.548;2023-04-20T06:25:58;8.57;;;6.35;;
77466;SDS011;66564;42.482;25.548;2023-04-20T06:48:07;10.27;;;6.47;;
77466;SDS011;66564;42.482;25.548;2023-04-20T06:50:33;8.10;;;5.82;;
77466;SDS011;66564;42.482;25.548;2023-04-20T06:53:00;9.75;;;6.30;;
77466;SDS011;66564;42.482;25.548;2023-04-20T06:55:27;9.07;;;6.15;;
77466;SDS011;66564;42.482;25.548;2023-04-20T06:57:52;8.68;;;6.43;;
77466;SDS011;66564;42.482;25.548;2023-04-20T07:00:18;8.25;;;6.35;;
77466;SDS011;66564;42.482;25.548;2023-04-20T07:02:47;9.85;;;6.28;;
77466;SDS011;66564;42.482;25.548;2023-04-20T07:05:14;8.60;;;6.45;;
77466;SDS011;66564;42.482;25.548;2023-04-20T07:07:40;9.02;;;6.70;;
77466;SDS011;66564;42.482;25.548;2023-04-20T07:10:15;9.70;;;6.22;;
77466;SDS011;66564;42.482;25.548;2023-04-20T07:12:41;15.15;;;6.88;;
77466;SDS011;66564;42.482;25.548;2023-04-20T07:15:21;9.48;;;6.50;;
77466;SDS011;66564;42.482;25.548;2023-04-20T07:17:47;9.75;;;6.00;;
77466;SDS011;66564;42.482;25.548;2023-04-20T07:20:12;8.07;;;6.07;;
77466;SDS011;66564;42.482;25.548;2023-04-20T07:22:41;10.57;;;6.82;;
77466;SDS011;66564;42.482;25.548;2023-04-20T07:25:07;7.35;;;6.15;;
77466;SDS011;66564;42.482;25.548;2023-04-20T07:27:35;10.43;;;6.65;;
77466;SDS011;66564;42.482;25.548;2023-04-20T07:30:01;9.15;;;6.80;;
77466;SDS011;66564;42.482;25.548;2023-04-20T07:32:31;9.82;;;6.43;;
77466;SDS011;66564;42.482;25.548;2023-04-20T07:34:57;8.77;;;6.80;;
77466;SDS011;66564;42.482;25.548;2023-04-20T07:37:23;7.82;;;6.65;;
77466;SDS011;66564;42.482;25.548;2023-04-20T07:39:50;9.75;;;6.80;;
77466;SDS011;66564;42.482;25.548;2023-04-20T07:42:17;10.48;;;6.90;;
77466;SDS011;66564;42.482;25.548;2023-04-20T07:44:43;13.32;;;7.53;;
77466;SDS011;66564;42.482;25.548;2023-04-20T07:47:09;10.18;;;6.78;;
77466;SDS011;66564;42.482;25.548;2023-04-20T07:49:35;10.18;;;5.72;;
77466;SDS011;66564;42.482;25.548;2023-04-20T07:52:01;10.00;;;6.95;;
77466;SDS011;66564;42.482;25.548;2023-04-20T07:54:27;10.90;;;6.90;;
77466;SDS011;66564;42.482;25.548;2023-04-20T07:56:53;7.97;;;6.03;;
77466;SDS011;66564;42.482;25.548;2023-04-20T07:59:18;9.68;;;6.80;;
77466;SDS011;66564;42.482;25.548;2023-04-20T08:01:44;8.80;;;6.65;;
77466;SDS011;66564;42.482;25.548;2023-04-20T08:04:10;8.60;;;6.32;;
77466;SDS011;66564;42.482;25.548;2023-04-20T08:06:36;9.20;;;5.78;;
77466;SDS011;66564;42.482;25.548;2023-04-20T08:09:02;6.50;;;5.53;;
77466;SDS011;66564;42.482;25.548;2023-04-20T08:11:27;8.68;;;7.00;;
77466;SDS011;66564;42.482;25.548;2023-04-20T08:13:53;9.13;;;6.05;;
77466;SDS011;66564;42.482;25.548;2023-04-20T08:16:19;8.30;;;6.45;;
77466;SDS011;66564;42.482;25.548;2023-04-20T08:18:45;9.15;;;7.30;;
77466;SDS011;66564;42.482;25.548;2023-04-20T08:21:12;9.70;;;5.97;;
77466;SDS011;66564;42.482;25.548;2023-04-20T08:23:41;6.97;;;6.00;;
77466;SDS011;66564;42.482;25.548;2023-04-20T08:26:09;6.40;;;4.80;;
77466;SDS011;66564;42.482;25.548;2023-04-20T08:28:38;6.15;;;5.55;;
77466;SDS011;66564;42.482;25.548;2023-04-20T08:31:06;8.02;;;6.10;;
77466;SDS011;66564;42.482;25.548;2023-04-20T08:33:31;8.75;;;6.88;;
77466;SDS011;66564;42.482;25.548;2023-04-20T08:35:57;7.07;;;6.38;;
77466;SDS011;66564;42.482;25.548;2023-04-20T08:38:22;8.70;;;6.55;;
77466;SDS011;66564;42.482;25.548;2023-04-20T08:40:48;8.77;;;5.82;;
77466;SDS011;66564;42.482;25.548;2023-04-20T08:43:14;7.57;;;5.70;;
77466;SDS011;66564;42.482;25.548;2023-04-20T08:45:40;7.93;;;5.25;;
77466;SDS011;66564;42.482;25.548;2023-04-20T08:48:09;10.00;;;6.78;;
77466;SDS011;66564;42.482;25.548;2023-04-20T08:50:39;13.20;;;6.40;;
77466;SDS011;66564;42.482;25.548;2023-04-20T08:53:05;9.65;;;6.57;;
77466;SDS011;66564;42.482;25.548;2023-04-20T08:55:31;7.25;;;5.40;;
77466;SDS011;66564;42.482;25.548;2023-04-20T08:57:57;6.13;;;5.47;;
77466;SDS011;66564;42.482;25.548;2023-04-20T09:00:22;7.28;;;5.57;;
77466;SDS011;66564;42.482;25.548;2023-04-20T09:02:52;9.13;;;5.80;;
77466;SDS011;66564;42.482;25.548;2023-04-20T09:05:25;6.55;;;5.65;;
77466;SDS011;66564;42.482;25.548;2023-04-20T09:07:56;6.40;;;5.32;;
77466;SDS011;66564;42.482;25.548;2023-04-20T09:10:36;8.23;;;5.53;;
77466;SDS011;66564;42.482;25.548;2023-04-20T09:13:06;7.43;;;6.32;;
77466;SDS011;66564;42.482;25.548;2023-04-20T09:15:32;6.20;;;5.53;;
77466;SDS011;66564;42.482;25.548;2023-04-20T09:17:57;8.02;;;5.82;;
77466;SDS011;66564;42.482;25.548;2023-04-20T09:20:33;7.00;;;5.60;;
77466;SDS011;66564;42.482;25.548;2023-04-20T09:23:15;10.02;;;5.50;;
77466;SDS011;66564;42.482;25.548;2023-04-20T09:25:42;6.28;;;5.32;;
77466;SDS011;66564;42.482;25.548;2023-04-20T09:28:10;9.70;;;5.78;;
77466;SDS011;66564;42.482;25.548;2023-04-20T09:33:10;10.48;;;5.57;;
77466;SDS011;66564;42.482;25.548;2023-04-20T09:35:37;7.03;;;5.35;;
77466;SDS011;66564;42.482;25.548;2023-04-20T09:38:09;7.32;;;5.95;;
77466;SDS011;66564;42.482;25.548;2023-04-20T09:40:39;6.70;;;5.78;;
77466;SDS011;66564;42.482;25.548;2023-04-20T09:45:56;7.75;;;5.90;;
77466;SDS011;66564;42.482;25.548;2023-04-20T09:48:23;9.30;;;5.88;;
77466;SDS011;66564;42.482;25.548;2023-04-20T09:50:48;10.77;;;6.82;;
77466;SDS011;66564;42.482;25.548;2023-04-20T09:53:15;8.15;;;5.85;;
77466;SDS011;66564;42.482;25.548;2023-04-20T09:55:44;11.18;;;5.80;;
77466;SDS011;66564;42.482;25.548;2023-04-20T09:58:12;7.63;;;5.90;;
77466;SDS011;66564;42.482;25.548;2023-04-20T10:00:38;7.57;;;5.90;;
77466;SDS011;66564;42.482;25.548;2023-04-20T10:03:03;10.35;;;6.00;;
77466;SDS011;66564;42.482;25.548;2023-04-20T10:05:36;6.47;;;4.95;;
77466;SDS011;66564;42.482;25.548;2023-04-20T10:08:03;8.18;;;6.20;;
77466;SDS011;66564;42.482;25.548;2023-04-20T10:10:30;6.63;;;5.55;;
77466;SDS011;66564;42.482;25.548;2023-04-20T10:13:06;7.68;;;5.68;;
77466;SDS011;66564;42.482;25.548;2023-04-20T10:15:38;7.07;;;5.63;;
77466;SDS011;66564;42.482;25.548;2023-04-20T10:18:14;8.20;;;6.28;;
77466;SDS011;66564;42.482;25.548;2023-04-20T10:20:41;7.90;;;6.68;;
77466;SDS011;66564;42.482;25.548;2023-04-20T10:23:08;6.78;;;5.82;;
77466;SDS011;66564;42.482;25.548;2023-04-20T10:25:35;22.17;;;7.10;;
77466;SDS011;66564;42.482;25.548;2023-04-20T10:28:02;7.55;;;6.38;;
77466;SDS011;66564;42.482;25.548;2023-04-20T10:30:30;7.47;;;5.60;;
77466;SDS011;66564;42.482;25.548;2023-04-20T10:33:07;7.03;;;6.32;;
77466;SDS011;66564;42.482;25.548;2023-04-20T10:35:43;9.10;;;6.13;;
77466;SDS011;66564;42.482;25.548;2023-04-20T10:38:11;8.75;;;5.93;;
77466;SDS011;66564;42.482;25.548;2023-04-20T10:40:37;7.70;;;6.35;;
77466;SDS011;66564;42.482;25.548;2023-04-20T10:43:02;10.10;;;6.38;;
77466;SDS011;66564;42.482;25.548;2023-04-20T10:45:34;9.10;;;5.85;;
77466;SDS011;66564;42.482;25.548;2023-04-20T10:48:08;7.68;;;6.25;;
77466;SDS011;66564;42.482;25.548;2023-04-20T10:50:34;6.93;;;6.03;;
77466;SDS011;66564;42.482;25.548;2023-04-20T10:53:01;11.05;;;5.53;;
77466;SDS011;66564;42.482;25.548;2023-04-20T10:55:28;6.32;;;5.40;;
77466;SDS011;66564;42.482;25.548;2023-04-20T10:57:54;7.07;;;5.47;;
77466;SDS011;66564;42.482;25.548;2023-04-20T11:00:20;7.80;;;6.03;;
77466;SDS011;66564;42.482;25.548;2023-04-20T11:02:52;7.88;;;6.28;;
77466;SDS011;66564;42.482;25.548;2023-04-20T11:05:19;10.57;;;5.68;;
77466;SDS011;66564;42.482;25.548;2023-04-20T11:07:50;9.48;;;5.80;;
77466;SDS011;66564;42.482;25.548;2023-04-20T11:10:19;8.52;;;5.97;;
77466;SDS011;66564;42.482;25.548;2023-04-20T11:12:46;10.07;;;6.60;;
77466;SDS011;66564;42.482;25.548;2023-04-20T11:15:12;9.30;;;6.38;;
77466;SDS011;66564;42.482;25.548;2023-04-20T11:17:38;8.23;;;6.22;;
77466;SDS011;66564;42.482;25.548;2023-04-20T11:20:04;8.82;;;5.57;;
77466;SDS011;66564;42.482;25.548;2023-04-20T11:22:33;13.70;;;6.60;;
77466;SDS011;66564;42.482;25.548;2023-04-20T11:25:02;12.88;;;8.43;;
77466;SDS011;66564;42.482;25.548;2023-04-20T11:27:35;23.50;;;10.77;;
77466;SDS011;66564;42.482;25.548;2023-04-20T11:30:01;14.07;;;9.90;;
77466;SDS011;66564;42.482;25.548;2023-04-20T11:32:30;14.88;;;7.32;;
77466;SDS011;66564;42.482;25.548;2023-04-20T11:34:57;15.98;;;11.27;;
77466;SDS011;66564;42.482;25.548;2023-04-20T11:37:24;12.25;;;9.18;;
77466;SDS011;66564;42.482;25.548;2023-04-20T11:40:00;10.23;;;7.82;;
77466;SDS011;66564;42.482;25.548;2023-04-20T11:42:29;12.38;;;7.88;;
77466;SDS011;66564;42.482;25.548;2023-04-20T11:44:55;10.52;;;6.55;;
77466;SDS011;66564;42.482;25.548;2023-04-20T11:47:21;11.50;;;7.47;;
77466;SDS011;66564;42.482;25.548;2023-04-20T11:49:47;8.90;;;6.80;;
77466;SDS011;66564;42.482;25.548;2023-04-20T11:52:12;14.50;;;6.50;;
77466;SDS011;66564;42.482;25.548;2023-04-20T11:54:38;8.20;;;6.63;;
77466;SDS011;66564;42.482;25.548;2023-04-20T11:57:04;9.70;;;7.20;;
77466;SDS011;66564;42.482;25.548;2023-04-20T11:59:31;10.68;;;6.80;;
77466;SDS011;66564;42.482;25.548;2023-04-20T12:01:57;9.80;;;7.35;;
77466;SDS011;66564;42.482;25.548;2023-04-20T12:04:26;7.93;;;6.90;;
77466;SDS011;66564;42.482;25.548;2023-04-20T12:06:52;7.45;;;6.15;;
77466;SDS011;66564;42.482;25.548;2023-04-20T12:09:17;8.32;;;6.70;;
77466;SDS011;66564;42.482;25.548;2023-04-20T12:11:43;8.65;;;7.28;;
77466;SDS011;66564;42.482;25.548;2023-04-20T12:14:08;7.93;;;6.78;;
77466;SDS011;66564;42.482;25.548;2023-04-20T12:16:34;9.00;;;6.15;;
77466;SDS011;66564;42.482;25.548;2023-04-20T12:19:00;10.88;;;7.05;;
77466;SDS011;66564;42.482;25.548;2023-04-20T12:21:25;8.65;;;6.63;;
77466;SDS011;66564;42.482;25.548;2023-04-20T12:23:51;7.40;;;6.18;;
77466;SDS011;66564;42.482;25.548;2023-04-20T12:26:16;8.18;;;6.47;;
77466;SDS011;66564;42.482;25.548;2023-04-20T12:28:42;9.43;;;6.38;;
77466;SDS011;66564;42.482;25.548;2023-04-20T12:31:09;7.20;;;6.00;;
77466;SDS011;66564;42.482;25.548;2023-04-20T12:33:37;9.00;;;6.30;;
77466;SDS011;66564;42.482;25.548;2023-04-20T12:36:03;14.90;;;6.85;;
77466;SDS011;66564;42.482;25.548;2023-04-20T12:38:29;9.30;;;7.05;;
77466;SDS011;66564;42.482;25.548;2023-04-20T12:40:55;10.25;;;7.03;;
77466;SDS011;66564;42.482;25.548;2023-04-20T12:43:20;9.20;;;6.80;;
77466;SDS011;66564;42.482;25.548;2023-04-20T12:45:46;7.95;;;7.15;;
77466;SDS011;66564;42.482;25.548;2023-04-20T12:48:12;9.07;;;6.63;;
77466;SDS011;66564;42.482;25.548;2023-04-20T12:50:38;14.13;;;6.70;;
77466;SDS011;66564;42.482;25.548;2023-04-20T12:53:03;8.75;;;6.53;;
77466;SDS011;66564;42.482;25.548;2023-04-20T12:55:29;10.75;;;6.20;;
77466;SDS011;66564;42.482;25.548;2023-04-20T12:57:54;9.15;;;5.90;;
77466;SDS011;66564;42.482;25.548;2023-04-20T13:00:20;8.00;;;5.70;;
77466;SDS011;66564;42.482;25.548;2023-04-20T13:02:46;8.40;;;6.43;;
77466;SDS011;66564;42.482;25.548;2023-04-20T13:05:11;8.30;;;6.22;;
77466;SDS011;66564;42.482;25.548;2023-04-20T13:07:37;9.13;;;5.97;;
77466;SDS011;66564;42.482;25.548;2023-04-20T13:10:03;8.32;;;6.32;;
77466;SDS011;66564;42.482;25.548;2023-04-20T13:12:29;8.88;;;6.38;;
77466;SDS011;66564;42.482;25.548;2023-04-20T13:14:55;9.88;;;6.70;;
77466;SDS011;66564;42.482;25.548;2023-04-20T13:17:21;6.93;;;5.90;;
77466;SDS011;66564;42.482;25.548;2023-04-20T13:19:47;7.97;;;6.50;;
77466;SDS011;66564;42.482;25.548;2023-04-20T13:22:13;8.73;;;6.20;;
77466;SDS011;66564;42.482;25.548;2023-04-20T13:24:40;7.57;;;6.32;;
77466;SDS011;66564;42.482;25.548;2023-04-20T13:27:11;9.10;;;6.82;;
77466;SDS011;66564;42.482;25.548;2023-04-20T13:29:38;10.90;;;7.20;;
77466;SDS011;66564;42.482;25.548;2023-04-20T13:32:04;12.38;;;7.13;;
77466;SDS011;66564;42.482;25.548;2023-04-20T13:34:30;11.48;;;7.63;;
77466;SDS011;66564;42.482;25.548;2023-04-20T13:36:55;22.73;;;13.27;;
77466;SDS011;66564;42.482;25.548;2023-04-20T13:39:22;10.10;;;7.53;;
77466;SDS011;66564;42.482;25.548;2023-04-20T13:41:48;10.52;;;7.15;;
77466;SDS011;66564;42.482;25.548;2023-04-20T13:44:13;10.50;;;7.07;;
77466;SDS011;66564;42.482;25.548;2023-04-20T13:46:42;10.65;;;7.32;;
77466;SDS011;66564;42.482;25.548;2023-04-20T13:49:09;21.98;;;13.43;;
77466;SDS011;66564;42.482;25.548;2023-04-20T13:51:36;14.55;;;9.57;;
77466;SDS011;66564;42.482;25.548;2023-04-20T13:54:02;12.38;;;8.30;;
77466;SDS011;66564;42.482;25.548;2023-04-20T13:56:28;13.90;;;8.25;;
77466;SDS011;66564;42.482;25.548;2023-04-20T13:58:57;14.93;;;9.52;;
77466;SDS011;66564;42.482;25.548;2023-04-20T14:01:23;12.02;;;9.20;;
77466;SDS011;66564;42.482;25.548;2023-04-20T14:03:53;9.38;;;7.18;;
77466;SDS011;66564;42.482;25.548;2023-04-20T14:06:19;9.88;;;7.78;;
77466;SDS011;66564;42.482;25.548;2023-04-20T14:08:45;11.05;;;8.57;;
77466;SDS011;66564;42.482;25.548;2023-04-20T14:11:10;12.68;;;8.30;;
77466;SDS011;66564;42.482;25.548;2023-04-20T14:13:36;11.02;;;8.77;;
77466;SDS011;66564;42.482;25.548;2023-04-20T14:16:09;15.27;;;9.63;;
77466;SDS011;66564;42.482;25.548;2023-04-20T14:18:36;10.65;;;8.40;;
77466;SDS011;66564;42.482;25.548;2023-04-20T14:21:01;13.90;;;8.70;;
77466;SDS011;66564;42.482;25.548;2023-04-20T14:23:27;11.05;;;8.13;;
77466;SDS011;66564;42.482;25.548;2023-04-20T14:25:53;10.38;;;7.80;;
77466;SDS011;66564;42.482;25.548;2023-04-20T14:28:18;9.38;;;8.07;;
77466;SDS011;66564;42.482;25.548;2023-04-20T14:30:44;9.80;;;8.15;;
77466;SDS011;66564;42.482;25.548;2023-04-20T14:33:10;9.35;;;7.57;;
77466;SDS011;66564;42.482;25.548;2023-04-20T14:35:36;8.52;;;7.03;;
77466;SDS011;66564;42.482;25.548;2023-04-20T14:38:02;13.05;;;8.35;;
77466;SDS011;66564;42.482;25.548;2023-04-20T14:40:27;12.55;;;7.78;;
77466;SDS011;66564;42.482;25.548;2023-04-20T14:42:53;11.40;;;7.38;;
77466;SDS011;66564;42.482;25.548;2023-04-20T14:45:19;9.98;;;7.75;;
77466;SDS011;66564;42.482;25.548;2023-04-20T14:47:44;10.15;;;7.10;;
77466;SDS011;66564;42.482;25.548;2023-04-20T14:50:10;9.82;;;7.22;;
77466;SDS011;66564;42.482;25.548;2023-04-20T14:52:36;8.05;;;6.65;;